Map

Track Data

SID SEASON NUMBER BASIN SUBBASIN NAME ISO_TIME NATURE LAT LON WMO_WIND WMO_PRES WMO_AGENCY TRACK_TYPE DIST2LAND LANDFALL IFLAG USA_AGENCY USA_ATCF_ID USA_LAT USA_LON USA_RECORD USA_STATUS USA_WIND USA_PRES USA_SSHS USA_R34_NE USA_R34_SE USA_R34_SW USA_R34_NW USA_R50_NE USA_R50_SE USA_R50_SW USA_R50_NW USA_R64_NE USA_R64_SE USA_R64_SW USA_R64_NW USA_POCI USA_ROCI USA_RMW USA_EYE TOKYO_LAT TOKYO_LON TOKYO_GRADE TOKYO_WIND TOKYO_PRES TOKYO_R50_DIR TOKYO_R50_LONG TOKYO_R50_SHORT TOKYO_R30_DIR TOKYO_R30_LONG TOKYO_R30_SHORT TOKYO_LAND CMA_LAT CMA_LON CMA_CAT CMA_WIND CMA_PRES HKO_LAT HKO_LON HKO_CAT HKO_WIND HKO_PRES NEWDELHI_LAT NEWDELHI_LON NEWDELHI_GRADE NEWDELHI_WIND NEWDELHI_PRES NEWDELHI_CI NEWDELHI_DP NEWDELHI_POCI REUNION_LAT REUNION_LON REUNION_TYPE REUNION_WIND REUNION_PRES REUNION_TNUM REUNION_CI REUNION_RMW REUNION_R34_NE REUNION_R34_SE REUNION_R34_SW REUNION_R34_NW REUNION_R50_NE REUNION_R50_SE REUNION_R50_SW REUNION_R50_NW REUNION_R64_NE REUNION_R64_SE REUNION_R64_SW REUNION_R64_NW BOM_LAT BOM_LON BOM_TYPE BOM_WIND BOM_PRES BOM_TNUM BOM_CI BOM_RMW BOM_R34_NE BOM_R34_SE BOM_R34_SW BOM_R34_NW BOM_R50_NE BOM_R50_SE BOM_R50_SW BOM_R50_NW BOM_R64_NE BOM_R64_SE BOM_R64_SW BOM_R64_NW BOM_ROCI BOM_POCI BOM_EYE BOM_POS_METHOD BOM_PRES_METHOD NADI_LAT NADI_LON NADI_CAT NADI_WIND NADI_PRES WELLINGTON_LAT WELLINGTON_LON WELLINGTON_WIND WELLINGTON_PRES DS824_LAT DS824_LON DS824_STAGE DS824_WIND DS824_PRES TD9636_LAT TD9636_LON TD9636_STAGE TD9636_WIND TD9636_PRES TD9635_LAT TD9635_LON TD9635_WIND TD9635_PRES TD9635_ROCI NEUMANN_LAT NEUMANN_LON NEUMANN_CLASS NEUMANN_WIND NEUMANN_PRES MLC_LAT MLC_LON MLC_CLASS MLC_WIND MLC_PRES USA_GUST BOM_GUST BOM_GUST_PER REUNION_GUST REUNION_GUST_PER USA_SEAHGT USA_SEARAD_NE USA_SEARAD_SE USA_SEARAD_SW USA_SEARAD_NW STORM_SPEED STORM_DIR
1858345S08094 1859 23 SI WA NOT_NAMED 1858-12-11 06:00:00 NR -7.80000 93.5000 main 908 908 _____O________ -1 -7.80000 93.5000 99 9.90000 3 216
1858345S08094 1859 23 SI WA NOT_NAMED 1858-12-11 09:00:00 NR -7.91110 93.4251 main 924 924 _____P________ -1 -7.91110 93.4251 99 3 214
1858345S08094 1859 23 SI WA NOT_NAMED 1858-12-11 12:00:00 NR -8.03302 93.3456 main 940 940 _____P________ -1 -8.03302 93.3456 99 3 212
1858345S08094 1859 23 SI WA NOT_NAMED 1858-12-11 15:00:00 NR -8.17659 93.2565 main 956 956 _____P________ -1 -8.17659 93.2565 99 4 211
1858345S08094 1859 23 SI WA NOT_NAMED 1858-12-11 18:00:00 NR -8.35269 93.1531 main 981 981 _____P________ -1 -8.35269 93.1531 99 5 210
1858345S08094 1859 23 SI WA NOT_NAMED 1858-12-11 21:00:00 NR -8.57218 93.0307 main 1012 1012 _____P________ -1 -8.57218 93.0307 99 6 208
1858345S08094 1859 23 SI WA NOT_NAMED 1858-12-12 00:00:00 NR -8.84595 92.8843 main 1036 1036 _____P________ -1 -8.84595 92.8843 99 7 207
1858345S08094 1859 23 SI WA NOT_NAMED 1858-12-12 03:00:00 NR -9.18492 92.7091 main 1085 1085 _____P________ -1 -9.18492 92.7091 99 8 207
1858345S08094 1859 23 SI WA NOT_NAMED 1858-12-12 06:00:00 NR -9.60000 92.5000 main 1133 1133 _____O________ -1 -9.60000 92.5000 99 9.90000 10 206
1858345S08094 1859 23 SI WA NOT_NAMED 1858-12-12 09:00:00 NR -10.0965 92.2544 main 1191 1191 _____P________ -1 -10.0965 92.2544 99 12 206
1858345S08094 1859 23 SI WA NOT_NAMED 1858-12-12 12:00:00 NR -10.6575 91.9797 main 1264 1264 _____P________ -1 -10.6575 91.9797 99 13 206
1858345S08094 1859 23 SI WA NOT_NAMED 1858-12-12 15:00:00 NR -11.2601 91.6861 main 1337 1337 _____P________ -1 -11.2601 91.6861 99 14 206
1858345S08094 1859 23 SI WA NOT_NAMED 1858-12-12 18:00:00 NR -11.8815 91.3839 main 1411 1411 _____P________ -1 -11.8815 91.3839 99 14 205
1858345S08094 1859 23 SI WA NOT_NAMED 1858-12-12 21:00:00 NR -12.4989 91.0834 main 1484 1484 _____P________ -1 -12.4989 91.0834 99 13 205
1858345S08094 1859 23 SI WA NOT_NAMED 1858-12-13 00:00:00 NR -13.0895 90.7953 main 1558 1558 _____P________ -1 -13.0895 90.7953 99 13 205
1858345S08094 1859 23 SI WA NOT_NAMED 1858-12-13 03:00:00 NR -13.6308 90.5305 main 1622 1622 _____P________ -1 -13.6308 90.5305 99 11 205
1858345S08094 1859 23 SI WA NOT_NAMED 1858-12-13 06:00:00 NR -14.1000 90.3000 main 1680 1680 _____O________ -1 -14.1000 90.3000 99 9.90000 9 205
1858345S08094 1859 23 SI WA NOT_NAMED 1858-12-13 09:00:00 NR -14.4806 90.1121 main 1729 1729 _____P________ -1 -14.4806 90.1121 99 8 206
1858345S08094 1859 23 SI MM NOT_NAMED 1858-12-13 12:00:00 NR -14.7788 89.9641 main 1763 1763 _____P________ -1 -14.7788 89.9641 99 6 206
1858345S08094 1859 23 SI MM NOT_NAMED 1858-12-13 15:00:00 NR -15.0064 89.8505 main 1787 1787 _____P________ -1 -15.0064 89.8505 99 4 206
1858345S08094 1859 23 SI MM NOT_NAMED 1858-12-13 18:00:00 NR -15.1754 89.7657 main 1812 1812 _____P________ -1 -15.1754 89.7657 99 3 206
1858345S08094 1859 23 SI MM NOT_NAMED 1858-12-13 21:00:00 NR -15.2975 89.7040 main 1827 1827 _____P________ -1 -15.2975 89.7040 99 2 207
1858345S08094 1859 23 SI MM NOT_NAMED 1858-12-14 00:00:00 NR -15.3845 89.6597 main 1837 1837 _____P________ -1 -15.3845 89.6597 99 2 206
1858345S08094 1859 23 SI MM NOT_NAMED 1858-12-14 03:00:00 NR -15.4481 89.6270 main 1843 1843 _____P________ -1 -15.4481 89.6270 99 1 208
1858345S08094 1859 23 SI MM NOT_NAMED 1858-12-14 06:00:00 NR -15.5000 89.6000 main 1852 _____O________ -1 -15.5000 89.6000 99 9.90000 1 202

About IBTrACS Database

This database is a web-friendly format of International Best Track Archive for Climate Stewardship (IBTrACS), a global best track data archive curated by NOAA dating back to 1842.

Updated: 2021-12-06